createdAt,value
2018-10-21T00:02:17.092Z,13.53
2018-10-21T00:07:20.409Z,21.30
2018-10-21T00:12:23.699Z,13.30
2018-10-21T00:17:27.080Z,14.50
2018-10-21T00:22:30.476Z,13.90
2018-10-21T00:27:33.796Z,8.63
2018-10-21T00:32:42.356Z,14.27
2018-10-21T00:37:45.671Z,8.23
2018-10-21T00:42:48.956Z,10.37
2018-10-21T00:47:52.448Z,12.50
2018-10-21T00:52:55.716Z,10.40
2018-10-21T00:57:59.009Z,10.17
2018-10-21T01:03:02.552Z,9.00
2018-10-21T01:08:05.944Z,11.80
2018-10-21T01:13:09.301Z,17.57
2018-10-21T01:18:12.620Z,10.43
2018-10-21T01:23:16.030Z,9.37
2018-10-21T01:28:19.404Z,10.37
2018-10-21T01:33:22.712Z,14.77
2018-10-21T01:38:26.340Z,13.77
2018-10-21T01:43:33.440Z,10.40
2018-10-21T01:48:36.760Z,11.70
2018-10-21T01:53:40.181Z,15.53
2018-10-21T01:58:43.470Z,14.07
2018-10-21T02:03:46.765Z,12.30
2018-10-21T02:08:50.253Z,10.70
2018-10-21T02:13:53.670Z,13.00
2018-10-21T02:18:56.957Z,14.53
2018-10-21T02:24:00.317Z,12.37
2018-10-21T02:29:03.697Z,12.33
2018-10-21T02:34:07.034Z,9.63
2018-10-21T02:39:10.476Z,14.10
2018-10-21T02:44:17.016Z,14.03
2018-10-21T02:49:20.952Z,11.97
2018-10-21T02:54:32.634Z,11.50
2018-10-21T02:59:36.272Z,14.47
2018-10-21T03:04:39.602Z,11.63
2018-10-21T03:09:42.876Z,10.25
2018-10-21T03:14:46.306Z,13.13
2018-10-21T03:19:49.646Z,9.07
2018-10-21T03:24:52.948Z,14.47
2018-10-21T03:29:56.334Z,7.80
2018-10-21T03:34:59.613Z,17.77
2018-10-21T03:40:03.043Z,11.67
2018-10-21T03:45:06.400Z,12.33
2018-10-21T03:50:09.704Z,21.37
2018-10-21T03:55:13.016Z,12.23
2018-10-21T04:00:16.413Z,10.77
2018-10-21T04:05:19.704Z,11.90
2018-10-21T04:10:23.076Z,10.05
2018-10-21T04:15:26.387Z,12.73
2018-10-21T04:20:29.895Z,12.53
2018-10-21T04:25:34.313Z,12.83
2018-10-21T04:30:39.644Z,14.67
2018-10-21T04:35:43.139Z,7.57
2018-10-21T04:40:46.529Z,12.03
2018-10-21T04:45:49.915Z,11.00
2018-10-21T04:50:53.299Z,9.07
2018-10-21T04:55:56.608Z,10.57
2018-10-21T05:00:59.620Z,11.50
2018-10-21T05:06:02.910Z,10.60
2018-10-21T05:11:06.369Z,9.70
2018-10-21T05:16:09.748Z,9.77
2018-10-21T05:21:12.958Z,10.70
2018-10-21T05:26:16.417Z,10.20
2018-10-21T05:31:19.717Z,7.90
2018-10-21T05:36:23.001Z,11.63
2018-10-21T05:41:26.771Z,10.73
2018-10-21T05:46:46.061Z,12.40
2018-10-21T05:51:50.525Z,13.37
2018-10-21T05:56:53.984Z,14.30
2018-10-21T06:01:57.272Z,12.67
2018-10-21T06:07:00.795Z,12.67
2018-10-21T06:12:04.271Z,12.43
2018-10-21T06:17:39.921Z,16.20
2018-10-21T06:22:44.922Z,17.37
2018-10-21T06:27:48.300Z,13.80
2018-10-21T06:32:51.672Z,14.53
2018-10-21T06:37:54.955Z,9.70
2018-10-21T06:42:58.327Z,11.17
2018-10-21T06:48:01.616Z,9.43
2018-10-21T06:53:05.131Z,13.00
2018-10-21T06:58:08.556Z,16.93
2018-10-21T07:03:11.892Z,12.65
2018-10-21T07:08:15.300Z,11.87
2018-10-21T07:13:18.665Z,16.90
2018-10-21T07:18:21.952Z,12.53
2018-10-21T07:23:25.400Z,17.80
2018-10-21T07:28:29.004Z,10.53
2018-10-21T07:33:32.328Z,16.30
2018-10-21T07:38:35.639Z,17.17
2018-10-21T07:43:38.912Z,12.93
2018-10-21T07:48:42.224Z,13.90
2018-10-21T07:53:45.709Z,12.03
2018-10-21T07:58:49.007Z,13.88
2018-10-21T08:03:52.304Z,12.87
2018-10-21T08:08:55.603Z,12.77
2018-10-21T08:13:58.954Z,10.40
2018-10-21T08:19:02.239Z,9.97
2018-10-21T08:24:05.576Z,14.10
2018-10-21T08:29:08.591Z,11.57
2018-10-21T08:34:12.008Z,11.50
2018-10-21T08:39:15.345Z,13.53
2018-10-21T08:44:19.836Z,15.97
2018-10-21T08:49:23.159Z,21.10
2018-10-21T08:54:26.472Z,13.30
2018-10-21T08:59:29.833Z,15.90
2018-10-21T09:04:33.173Z,16.90
2018-10-21T09:09:36.453Z,10.53
2018-10-21T09:14:39.815Z,14.73
2018-10-21T09:19:43.250Z,12.90
2018-10-21T09:24:46.547Z,20.13
2018-10-21T09:29:49.875Z,18.27
2018-10-21T09:34:53.204Z,17.73
2018-10-21T09:39:56.527Z,16.47
2018-10-21T09:44:59.796Z,15.53
2018-10-21T09:50:03.208Z,14.97
2018-10-21T09:55:11.474Z,16.43
2018-10-21T10:00:20.013Z,17.50
2018-10-21T10:05:23.659Z,12.80
2018-10-21T10:10:27.026Z,10.03
2018-10-21T10:15:30.364Z,13.53
2018-10-21T10:20:33.718Z,9.07
2018-10-21T10:25:37.152Z,11.53
2018-10-21T10:30:40.429Z,8.93
2018-10-21T10:35:43.717Z,9.27
2018-10-21T10:40:47.029Z,11.97
2018-10-21T10:45:50.507Z,9.83
2018-10-21T10:50:53.783Z,9.87
2018-10-21T10:55:57.072Z,9.40
2018-10-21T11:01:00.521Z,9.60
2018-10-21T11:06:03.767Z,10.67
2018-10-21T11:11:07.080Z,8.53
2018-10-21T11:16:10.463Z,5.80
2018-10-21T11:21:13.733Z,9.73
2018-10-21T11:26:17.031Z,8.58
2018-10-21T11:31:20.312Z,11.40
2018-10-21T11:36:23.641Z,10.30
2018-10-21T11:41:27.025Z,7.93
2018-10-21T11:46:30.468Z,6.20
2018-10-21T11:51:33.736Z,5.40
2018-10-21T11:56:38.299Z,5.37
2018-10-21T12:01:41.644Z,5.60
2018-10-21T12:06:44.932Z,7.57
2018-10-21T12:11:48.222Z,7.60
2018-10-21T12:16:51.518Z,7.30
2018-10-21T12:21:55.004Z,7.00
2018-10-21T12:26:58.312Z,7.30
2018-10-21T12:32:01.668Z,4.10
2018-10-21T12:37:05.146Z,3.50
2018-10-21T12:42:08.388Z,6.17
2018-10-21T12:47:11.726Z,4.77
2018-10-21T12:52:15.070Z,5.77
2018-10-21T12:57:18.344Z,5.27
2018-10-21T13:02:21.667Z,7.50
2018-10-21T13:07:24.990Z,7.40
2018-10-21T13:12:28.280Z,6.53
2018-10-21T13:17:31.572Z,3.87
2018-10-21T13:22:34.856Z,8.97
2018-10-21T13:27:38.176Z,4.60
2018-10-21T13:32:41.492Z,5.80
2018-10-21T13:37:44.788Z,3.60
2018-10-21T13:42:48.167Z,4.53
2018-10-21T13:47:51.496Z,4.97
2018-10-21T13:52:55.031Z,7.20
2018-10-21T13:57:58.466Z,8.43
2018-10-21T14:03:01.845Z,6.03
2018-10-21T14:08:05.437Z,4.47
2018-10-21T14:13:08.864Z,5.70
2018-10-21T14:18:12.188Z,4.43
2018-10-21T14:23:15.529Z,6.57
2018-10-21T14:28:18.839Z,3.30
2018-10-21T14:33:22.492Z,6.43
2018-10-21T14:38:25.927Z,5.37
2018-10-21T14:43:29.218Z,3.63
2018-10-21T14:48:32.701Z,5.97
2018-10-21T14:53:35.994Z,7.93
2018-10-21T14:58:39.275Z,6.00
2018-10-21T15:03:42.700Z,5.60
2018-10-21T15:08:46.008Z,5.57
2018-10-21T15:13:49.524Z,5.60
2018-10-21T15:18:52.946Z,7.60
2018-10-21T15:23:56.503Z,9.73
2018-10-21T15:28:59.817Z,7.00
2018-10-21T15:34:03.276Z,4.83
2018-10-21T15:39:08.361Z,7.53
2018-10-21T15:44:11.782Z,10.07
2018-10-21T15:49:15.036Z,5.10
2018-10-21T15:54:18.548Z,5.60
2018-10-21T15:59:21.580Z,5.40
2018-10-21T16:04:24.998Z,10.67
2018-10-21T16:09:28.388Z,6.97
2018-10-21T16:14:31.782Z,12.23
2018-10-21T16:19:35.087Z,7.97
2018-10-21T16:24:38.392Z,8.53
2018-10-21T16:29:41.732Z,9.17
2018-10-21T16:34:45.041Z,12.40
2018-10-21T16:39:48.336Z,7.33
2018-10-21T16:44:51.748Z,8.33
2018-10-21T16:49:55.211Z,5.97
2018-10-21T16:54:58.544Z,8.30
2018-10-21T17:00:02.058Z,8.80
2018-10-21T17:05:05.668Z,8.60
2018-10-21T17:10:09.933Z,10.10
2018-10-21T17:15:12.927Z,9.33
2018-10-21T17:20:16.813Z,4.07
2018-10-21T17:25:20.304Z,6.60
2018-10-21T17:30:23.760Z,8.37
2018-10-21T17:35:27.222Z,8.10
2018-10-21T17:40:30.702Z,5.50
2018-10-21T17:45:34.180Z,7.53
2018-10-21T17:50:37.760Z,7.57
2018-10-21T17:55:41.308Z,7.70
2018-10-21T18:00:44.788Z,9.10
2018-10-21T18:05:48.192Z,11.07
2018-10-21T18:10:51.940Z,9.67
2018-10-21T18:15:55.559Z,10.33
2018-10-21T18:20:58.977Z,8.75
2018-10-21T18:26:02.796Z,9.70
2018-10-21T18:31:06.605Z,12.77
2018-10-21T18:36:10.194Z,11.07
2018-10-21T18:41:13.957Z,10.53
2018-10-21T18:46:17.726Z,8.17
2018-10-21T18:51:21.224Z,14.27
2018-10-21T18:56:24.675Z,19.53
2018-10-21T19:01:28.722Z,12.13
2018-10-21T19:06:32.271Z,11.57
2018-10-21T19:11:36.022Z,9.33
2018-10-21T19:16:39.547Z,8.87
2018-10-21T19:21:43.233Z,12.20
2018-10-21T19:26:46.876Z,13.80
2018-10-21T19:31:50.531Z,8.77
2018-10-21T19:36:54.097Z,6.83
2018-10-21T19:41:57.529Z,5.20
2018-10-21T19:47:01.058Z,7.13
2018-10-21T19:52:05.376Z,9.63
2018-10-21T19:57:09.034Z,9.40
2018-10-21T20:02:12.644Z,8.33
2018-10-21T20:07:16.284Z,9.73
2018-10-21T20:12:19.912Z,9.40
2018-10-21T20:17:23.371Z,9.17
2018-10-21T20:22:26.822Z,6.60
2018-10-21T20:27:30.966Z,5.07
2018-10-21T20:32:34.531Z,6.50
2018-10-21T20:37:38.000Z,6.10
2018-10-21T20:42:42.088Z,5.57
2018-10-21T20:47:45.412Z,8.53
2018-10-21T20:52:49.017Z,7.10
2018-10-21T20:57:52.918Z,5.97
2018-10-21T21:02:56.702Z,5.33
2018-10-21T21:08:00.113Z,7.13
2018-10-21T21:13:03.609Z,7.83
2018-10-21T21:18:07.749Z,14.03
2018-10-21T21:23:11.559Z,5.22
2018-10-21T21:28:14.971Z,10.43
2018-10-21T21:33:18.773Z,8.47
2018-10-21T21:38:22.521Z,6.15
2018-10-21T21:43:26.102Z,4.83
2018-10-21T21:48:29.637Z,4.70
2018-10-21T21:53:33.078Z,6.07
2018-10-21T21:58:36.383Z,4.33
2018-10-21T22:03:39.660Z,4.90
2018-10-21T22:08:43.083Z,5.37
2018-10-21T22:13:46.375Z,8.27
2018-10-21T22:18:49.665Z,12.13
2018-10-21T22:23:52.971Z,8.40
2018-10-21T22:28:56.349Z,7.03
2018-10-21T22:33:59.698Z,7.33
2018-10-21T22:39:03.236Z,6.67
2018-10-21T22:44:06.584Z,4.90
2018-10-21T22:49:09.888Z,7.63
2018-10-21T22:54:13.229Z,5.78
2018-10-21T22:59:16.425Z,6.87
2018-10-21T23:04:19.773Z,6.97
2018-10-21T23:09:23.148Z,8.97
2018-10-21T23:14:26.408Z,2.77
2018-10-21T23:19:48.784Z,5.73
2018-10-21T23:24:52.076Z,6.87
2018-10-21T23:29:55.350Z,6.23
2018-10-21T23:34:58.656Z,7.07
2018-10-21T23:40:02.025Z,6.80
2018-10-21T23:45:05.438Z,3.10
2018-10-21T23:50:08.852Z,2.90
2018-10-21T23:55:12.159Z,6.13
